aviador You're here:

KMNI Decoded Metar

MANNING in SC, USA
Report Time2017-05-28 06:35:00
UTC Time2017-05-28 06:45:52
Flight Rules vfr VFR
WindCalm
Visibility9999 m
Phenomena:N/A
Clouds:N/A
CeilingNone
Temp18°C (ISA +3)
Dew Point18°C (100% RH)
QNH1013 hPa
Density Alt755 ft
Elevation105 ft
Report Wrong Elevation
Raw Report
METAR KMNI 280635Z AUTO 00000KT 10SM CLR 18/18 A2991 RMK AO2=

Extra information for KMNI:More info

Metar Taf Metar & Taf Last 4 Metars F.Rules Stats Wind Profile Meteogram Temp Stats Airport Information Weather charts Add Link Nearby VenuesMetar ALERT Operation Metar Decoded Social comments

AIRNAV info for KMNI